sensor_id;sensor_type;location;lat;lon;timestamp;P1;durP1;ratioP1;P2;durP2;ratioP2
24650;SDS011;12783;48.824;8.662;2023-02-28T00:00:25;4.70;;;2.40;;
24650;SDS011;12783;48.824;8.662;2023-02-28T00:02:51;3.55;;;2.00;;
24650;SDS011;12783;48.824;8.662;2023-02-28T00:05:20;4.28;;;2.22;;
24650;SDS011;12783;48.824;8.662;2023-02-28T00:07:49;4.70;;;2.05;;
24650;SDS011;12783;48.824;8.662;2023-02-28T00:10:18;4.32;;;2.22;;
24650;SDS011;12783;48.824;8.662;2023-02-28T00:12:49;3.72;;;2.20;;
24650;SDS011;12783;48.824;8.662;2023-02-28T00:15:17;3.28;;;2.10;;
24650;SDS011;12783;48.824;8.662;2023-02-28T00:17:44;4.88;;;2.40;;
24650;SDS011;12783;48.824;8.662;2023-02-28T00:20:11;4.72;;;2.30;;
24650;SDS011;12783;48.824;8.662;2023-02-28T00:22:39;4.95;;;2.22;;
24650;SDS011;12783;48.824;8.662;2023-02-28T00:25:08;6.65;;;2.55;;
24650;SDS011;12783;48.824;8.662;2023-02-28T00:27:36;4.20;;;2.60;;
24650;SDS011;12783;48.824;8.662;2023-02-28T00:30:04;7.05;;;2.83;;
24650;SDS011;12783;48.824;8.662;2023-02-28T00:32:31;5.47;;;3.15;;
24650;SDS011;12783;48.824;8.662;2023-02-28T00:34:58;7.63;;;3.03;;
24650;SDS011;12783;48.824;8.662;2023-02-28T00:37:25;8.82;;;3.08;;
24650;SDS011;12783;48.824;8.662;2023-02-28T00:39:52;5.15;;;3.22;;
24650;SDS011;12783;48.824;8.662;2023-02-28T00:42:18;6.68;;;3.00;;
24650;SDS011;12783;48.824;8.662;2023-02-28T00:44:45;8.35;;;3.20;;
24650;SDS011;12783;48.824;8.662;2023-02-28T00:47:12;6.00;;;2.75;;
24650;SDS011;12783;48.824;8.662;2023-02-28T00:49:39;7.10;;;3.42;;
24650;SDS011;12783;48.824;8.662;2023-02-28T00:52:06;5.70;;;2.90;;
24650;SDS011;12783;48.824;8.662;2023-02-28T00:54:33;4.47;;;2.92;;
24650;SDS011;12783;48.824;8.662;2023-02-28T00:56:59;4.82;;;2.90;;
24650;SDS011;12783;48.824;8.662;2023-02-28T00:59:26;7.57;;;3.05;;
24650;SDS011;12783;48.824;8.662;2023-02-28T01:01:53;5.75;;;2.88;;
24650;SDS011;12783;48.824;8.662;2023-02-28T01:04:20;8.30;;;2.90;;
24650;SDS011;12783;48.824;8.662;2023-02-28T01:06:46;6.60;;;3.30;;
24650;SDS011;12783;48.824;8.662;2023-02-28T01:09:13;10.38;;;3.60;;
24650;SDS011;12783;48.824;8.662;2023-02-28T01:11:40;9.63;;;3.60;;
24650;SDS011;12783;48.824;8.662;2023-02-28T01:14:14;5.32;;;3.17;;
24650;SDS011;12783;48.824;8.662;2023-02-28T01:16:41;5.65;;;3.15;;
24650;SDS011;12783;48.824;8.662;2023-02-28T01:19:08;6.50;;;3.25;;
24650;SDS011;12783;48.824;8.662;2023-02-28T01:21:35;5.95;;;3.20;;
24650;SDS011;12783;48.824;8.662;2023-02-28T01:24:02;6.97;;;3.35;;
24650;SDS011;12783;48.824;8.662;2023-02-28T01:26:30;5.88;;;3.67;;
24650;SDS011;12783;48.824;8.662;2023-02-28T01:28:57;6.55;;;3.38;;
24650;SDS011;12783;48.824;8.662;2023-02-28T01:31:24;5.93;;;3.50;;
24650;SDS011;12783;48.824;8.662;2023-02-28T01:33:52;4.88;;;3.60;;
24650;SDS011;12783;48.824;8.662;2023-02-28T01:36:20;4.80;;;3.33;;
24650;SDS011;12783;48.824;8.662;2023-02-28T01:38:48;7.07;;;3.75;;
24650;SDS011;12783;48.824;8.662;2023-02-28T01:41:17;6.80;;;3.33;;
24650;SDS011;12783;48.824;8.662;2023-02-28T01:43:54;7.97;;;4.00;;
24650;SDS011;12783;48.824;8.662;2023-02-28T01:46:21;7.38;;;3.63;;
24650;SDS011;12783;48.824;8.662;2023-02-28T01:48:53;10.25;;;4.05;;
24650;SDS011;12783;48.824;8.662;2023-02-28T01:51:34;10.02;;;4.10;;
24650;SDS011;12783;48.824;8.662;2023-02-28T01:54:12;7.30;;;3.90;;
24650;SDS011;12783;48.824;8.662;2023-02-28T01:56:43;7.07;;;4.00;;
24650;SDS011;12783;48.824;8.662;2023-02-28T01:59:19;7.90;;;4.10;;
24650;SDS011;12783;48.824;8.662;2023-02-28T02:01:49;8.48;;;4.20;;
24650;SDS011;12783;48.824;8.662;2023-02-28T02:04:16;9.30;;;3.90;;
24650;SDS011;12783;48.824;8.662;2023-02-28T02:06:44;7.90;;;4.35;;
24650;SDS011;12783;48.824;8.662;2023-02-28T02:09:12;8.52;;;4.35;;
24650;SDS011;12783;48.824;8.662;2023-02-28T02:11:39;7.72;;;4.18;;
24650;SDS011;12783;48.824;8.662;2023-02-28T02:17:05;7.43;;;4.28;;
24650;SDS011;12783;48.824;8.662;2023-02-28T02:28:06;8.77;;;3.65;;
24650;SDS011;12783;48.824;8.662;2023-02-28T02:31:06;7.00;;;4.22;;
24650;SDS011;12783;48.824;8.662;2023-02-28T02:33:59;9.85;;;4.40;;
24650;SDS011;12783;48.824;8.662;2023-02-28T02:36:38;7.10;;;3.75;;
24650;SDS011;12783;48.824;8.662;2023-02-28T02:41:54;8.80;;;4.60;;
24650;SDS011;12783;48.824;8.662;2023-02-28T02:44:22;6.43;;;4.10;;
24650;SDS011;12783;48.824;8.662;2023-02-28T02:46:58;8.07;;;4.85;;
24650;SDS011;12783;48.824;8.662;2023-02-28T02:49:34;7.65;;;4.40;;
24650;SDS011;12783;48.824;8.662;2023-02-28T02:52:03;8.75;;;4.63;;
24650;SDS011;12783;48.824;8.662;2023-02-28T02:54:33;8.90;;;4.50;;
24650;SDS011;12783;48.824;8.662;2023-02-28T02:57:03;10.32;;;5.03;;
24650;SDS011;12783;48.824;8.662;2023-02-28T03:02:06;7.28;;;4.80;;
24650;SDS011;12783;48.824;8.662;2023-02-28T03:04:38;7.80;;;4.60;;
24650;SDS011;12783;48.824;8.662;2023-02-28T03:07:08;8.90;;;4.50;;
24650;SDS011;12783;48.824;8.662;2023-02-28T03:09:35;8.20;;;4.75;;
24650;SDS011;12783;48.824;8.662;2023-02-28T03:12:02;9.55;;;5.00;;
24650;SDS011;12783;48.824;8.662;2023-02-28T03:14:39;9.15;;;5.03;;
24650;SDS011;12783;48.824;8.662;2023-02-28T03:20:27;8.18;;;5.20;;
24650;SDS011;12783;48.824;8.662;2023-02-28T03:23:35;8.57;;;5.03;;
24650;SDS011;12783;48.824;8.662;2023-02-28T03:25:56;7.38;;;4.70;;
24650;SDS011;12783;48.824;8.662;2023-02-28T03:30:54;9.50;;;5.20;;
24650;SDS011;12783;48.824;8.662;2023-02-28T03:33:37;9.73;;;5.28;;
24650;SDS011;12783;48.824;8.662;2023-02-28T03:36:10;10.23;;;5.53;;
24650;SDS011;12783;48.824;8.662;2023-02-28T03:38:44;9.35;;;5.47;;
24650;SDS011;12783;48.824;8.662;2023-02-28T03:41:16;9.50;;;5.20;;
24650;SDS011;12783;48.824;8.662;2023-02-28T03:43:51;11.10;;;5.78;;
24650;SDS011;12783;48.824;8.662;2023-02-28T03:48:55;8.35;;;4.97;;
24650;SDS011;12783;48.824;8.662;2023-02-28T03:51:27;10.35;;;5.78;;
24650;SDS011;12783;48.824;8.662;2023-02-28T03:53:59;9.60;;;5.53;;
24650;SDS011;12783;48.824;8.662;2023-02-28T03:56:32;11.00;;;6.05;;
24650;SDS011;12783;48.824;8.662;2023-02-28T03:59:20;14.88;;;6.18;;
24650;SDS011;12783;48.824;8.662;2023-02-28T04:01:51;9.85;;;5.78;;
24650;SDS011;12783;48.824;8.662;2023-02-28T04:04:18;10.52;;;5.78;;
24650;SDS011;12783;48.824;8.662;2023-02-28T04:06:45;9.25;;;5.63;;
24650;SDS011;12783;48.824;8.662;2023-02-28T04:09:13;11.60;;;5.97;;
24650;SDS011;12783;48.824;8.662;2023-02-28T04:11:44;9.40;;;5.55;;
24650;SDS011;12783;48.824;8.662;2023-02-28T04:14:12;11.93;;;6.15;;
24650;SDS011;12783;48.824;8.662;2023-02-28T04:16:40;10.82;;;5.75;;
24650;SDS011;12783;48.824;8.662;2023-02-28T04:19:08;12.48;;;5.93;;
24650;SDS011;12783;48.824;8.662;2023-02-28T04:24:03;11.43;;;6.20;;
24650;SDS011;12783;48.824;8.662;2023-02-28T04:26:30;10.13;;;5.45;;
24650;SDS011;12783;48.824;8.662;2023-02-28T04:28:58;10.52;;;5.72;;
24650;SDS011;12783;48.824;8.662;2023-02-28T04:31:25;9.73;;;6.13;;
24650;SDS011;12783;48.824;8.662;2023-02-28T04:33:52;11.02;;;5.70;;
24650;SDS011;12783;48.824;8.662;2023-02-28T04:36:19;12.90;;;6.45;;
24650;SDS011;12783;48.824;8.662;2023-02-28T04:38:46;12.75;;;6.55;;
24650;SDS011;12783;48.824;8.662;2023-02-28T04:41:12;11.82;;;6.43;;
24650;SDS011;12783;48.824;8.662;2023-02-28T04:43:39;14.93;;;6.28;;
24650;SDS011;12783;48.824;8.662;2023-02-28T04:46:06;12.20;;;6.22;;
24650;SDS011;12783;48.824;8.662;2023-02-28T04:48:34;9.77;;;6.40;;
24650;SDS011;12783;48.824;8.662;2023-02-28T04:51:12;11.90;;;6.38;;
24650;SDS011;12783;48.824;8.662;2023-02-28T04:53:40;11.18;;;6.60;;
24650;SDS011;12783;48.824;8.662;2023-02-28T04:56:08;11.10;;;6.65;;
24650;SDS011;12783;48.824;8.662;2023-02-28T04:58:37;10.80;;;6.10;;
24650;SDS011;12783;48.824;8.662;2023-02-28T05:01:07;11.32;;;6.55;;
24650;SDS011;12783;48.824;8.662;2023-02-28T05:03:49;10.85;;;6.75;;
24650;SDS011;12783;48.824;8.662;2023-02-28T05:06:17;16.00;;;6.97;;
24650;SDS011;12783;48.824;8.662;2023-02-28T05:08:44;13.57;;;6.85;;
24650;SDS011;12783;48.824;8.662;2023-02-28T05:11:16;12.15;;;6.32;;
24650;SDS011;12783;48.824;8.662;2023-02-28T05:13:44;14.98;;;6.75;;
24650;SDS011;12783;48.824;8.662;2023-02-28T05:16:11;14.95;;;6.85;;
24650;SDS011;12783;48.824;8.662;2023-02-28T05:18:38;13.57;;;7.13;;
24650;SDS011;12783;48.824;8.662;2023-02-28T05:21:05;11.15;;;7.05;;
24650;SDS011;12783;48.824;8.662;2023-02-28T05:23:32;13.00;;;6.85;;
24650;SDS011;12783;48.824;8.662;2023-02-28T05:25:59;14.13;;;7.07;;
24650;SDS011;12783;48.824;8.662;2023-02-28T05:28:26;13.48;;;7.18;;
24650;SDS011;12783;48.824;8.662;2023-02-28T05:30:52;12.98;;;7.00;;
24650;SDS011;12783;48.824;8.662;2023-02-28T05:33:19;16.80;;;7.40;;
24650;SDS011;12783;48.824;8.662;2023-02-28T05:35:46;15.52;;;7.53;;
24650;SDS011;12783;48.824;8.662;2023-02-28T05:38:13;11.95;;;6.47;;
24650;SDS011;12783;48.824;8.662;2023-02-28T05:40:39;19.25;;;8.10;;
24650;SDS011;12783;48.824;8.662;2023-02-28T05:43:07;15.25;;;7.47;;
24650;SDS011;12783;48.824;8.662;2023-02-28T05:45:36;14.70;;;7.22;;
24650;SDS011;12783;48.824;8.662;2023-02-28T05:48:03;19.70;;;7.43;;
24650;SDS011;12783;48.824;8.662;2023-02-28T05:50:30;16.80;;;7.05;;
24650;SDS011;12783;48.824;8.662;2023-02-28T05:52:56;13.93;;;7.22;;
24650;SDS011;12783;48.824;8.662;2023-02-28T05:55:23;14.63;;;7.68;;
24650;SDS011;12783;48.824;8.662;2023-02-28T05:57:50;16.02;;;8.07;;
24650;SDS011;12783;48.824;8.662;2023-02-28T06:00:17;17.23;;;8.32;;
24650;SDS011;12783;48.824;8.662;2023-02-28T06:02:44;15.38;;;8.27;;
24650;SDS011;12783;48.824;8.662;2023-02-28T06:05:14;15.82;;;8.70;;
24650;SDS011;12783;48.824;8.662;2023-02-28T06:07:43;14.30;;;8.07;;
24650;SDS011;12783;48.824;8.662;2023-02-28T06:10:10;21.55;;;8.35;;
24650;SDS011;12783;48.824;8.662;2023-02-28T06:12:37;16.63;;;7.88;;
24650;SDS011;12783;48.824;8.662;2023-02-28T06:15:04;18.08;;;8.15;;
24650;SDS011;12783;48.824;8.662;2023-02-28T06:17:31;13.05;;;7.28;;
24650;SDS011;12783;48.824;8.662;2023-02-28T06:19:58;13.85;;;7.55;;
24650;SDS011;12783;48.824;8.662;2023-02-28T06:22:25;21.27;;;8.20;;
24650;SDS011;12783;48.824;8.662;2023-02-28T06:24:52;16.65;;;7.20;;
24650;SDS011;12783;48.824;8.662;2023-02-28T06:27:19;13.35;;;7.65;;
24650;SDS011;12783;48.824;8.662;2023-02-28T06:29:46;13.60;;;7.45;;
24650;SDS011;12783;48.824;8.662;2023-02-28T06:32:13;13.93;;;7.80;;
24650;SDS011;12783;48.824;8.662;2023-02-28T06:34:40;13.43;;;7.43;;
24650;SDS011;12783;48.824;8.662;2023-02-28T06:37:07;12.63;;;7.45;;
24650;SDS011;12783;48.824;8.662;2023-02-28T06:39:33;14.75;;;7.38;;
24650;SDS011;12783;48.824;8.662;2023-02-28T06:42:00;14.98;;;8.13;;
24650;SDS011;12783;48.824;8.662;2023-02-28T06:44:27;17.63;;;8.43;;
24650;SDS011;12783;48.824;8.662;2023-02-28T06:46:59;17.85;;;7.75;;
24650;SDS011;12783;48.824;8.662;2023-02-28T06:49:26;17.20;;;7.85;;
24650;SDS011;12783;48.824;8.662;2023-02-28T06:51:53;15.18;;;7.68;;
24650;SDS011;12783;48.824;8.662;2023-02-28T06:54:20;17.40;;;7.57;;
24650;SDS011;12783;48.824;8.662;2023-02-28T06:56:47;14.30;;;7.78;;
24650;SDS011;12783;48.824;8.662;2023-02-28T06:59:14;18.27;;;7.50;;
24650;SDS011;12783;48.824;8.662;2023-02-28T07:01:40;15.85;;;8.10;;
24650;SDS011;12783;48.824;8.662;2023-02-28T07:04:07;15.13;;;7.60;;
24650;SDS011;12783;48.824;8.662;2023-02-28T07:06:34;17.58;;;7.53;;
24650;SDS011;12783;48.824;8.662;2023-02-28T07:09:01;16.10;;;7.57;;
24650;SDS011;12783;48.824;8.662;2023-02-28T07:11:30;15.90;;;8.00;;
24650;SDS011;12783;48.824;8.662;2023-02-28T07:13:57;14.70;;;7.95;;
24650;SDS011;12783;48.824;8.662;2023-02-28T07:16:24;18.27;;;7.80;;
24650;SDS011;12783;48.824;8.662;2023-02-28T07:18:52;13.57;;;6.97;;
24650;SDS011;12783;48.824;8.662;2023-02-28T07:21:19;18.30;;;8.07;;
24650;SDS011;12783;48.824;8.662;2023-02-28T07:23:46;13.98;;;7.45;;
24650;SDS011;12783;48.824;8.662;2023-02-28T07:26:14;12.85;;;7.43;;
24650;SDS011;12783;48.824;8.662;2023-02-28T07:28:44;17.05;;;8.57;;
24650;SDS011;12783;48.824;8.662;2023-02-28T07:31:12;14.65;;;7.93;;
24650;SDS011;12783;48.824;8.662;2023-02-28T07:33:40;13.82;;;7.88;;
24650;SDS011;12783;48.824;8.662;2023-02-28T07:36:09;18.70;;;8.57;;
24650;SDS011;12783;48.824;8.662;2023-02-28T07:38:45;19.77;;;7.97;;
24650;SDS011;12783;48.824;8.662;2023-02-28T07:43:44;13.77;;;7.32;;
24650;SDS011;12783;48.824;8.662;2023-02-28T07:46:13;17.63;;;7.70;;
24650;SDS011;12783;48.824;8.662;2023-02-28T07:48:44;13.05;;;7.47;;
24650;SDS011;12783;48.824;8.662;2023-02-28T07:51:11;14.93;;;7.38;;
24650;SDS011;12783;48.824;8.662;2023-02-28T07:53:38;15.43;;;7.88;;
24650;SDS011;12783;48.824;8.662;2023-02-28T07:56:05;15.10;;;8.23;;
24650;SDS011;12783;48.824;8.662;2023-02-28T07:58:32;16.25;;;7.80;;
24650;SDS011;12783;48.824;8.662;2023-02-28T08:01:05;16.45;;;8.00;;
24650;SDS011;12783;48.824;8.662;2023-02-28T08:03:33;14.80;;;8.10;;
24650;SDS011;12783;48.824;8.662;2023-02-28T08:06:00;15.02;;;8.25;;
24650;SDS011;12783;48.824;8.662;2023-02-28T08:08:28;13.65;;;7.88;;
24650;SDS011;12783;48.824;8.662;2023-02-28T08:10:58;19.13;;;8.43;;
24650;SDS011;12783;48.824;8.662;2023-02-28T08:13:27;15.27;;;8.40;;
24650;SDS011;12783;48.824;8.662;2023-02-28T08:15:54;18.58;;;7.80;;
24650;SDS011;12783;48.824;8.662;2023-02-28T08:18:21;14.07;;;8.15;;
24650;SDS011;12783;48.824;8.662;2023-02-28T08:20:49;16.45;;;8.40;;
24650;SDS011;12783;48.824;8.662;2023-02-28T08:23:16;21.05;;;8.20;;
24650;SDS011;12783;48.824;8.662;2023-02-28T08:25:42;15.50;;;7.95;;
24650;SDS011;12783;48.824;8.662;2023-02-28T08:28:09;14.93;;;7.75;;
24650;SDS011;12783;48.824;8.662;2023-02-28T08:30:36;15.68;;;7.88;;
24650;SDS011;12783;48.824;8.662;2023-02-28T08:33:03;15.85;;;7.82;;
24650;SDS011;12783;48.824;8.662;2023-02-28T08:35:30;15.80;;;8.45;;
24650;SDS011;12783;48.824;8.662;2023-02-28T08:37:56;15.93;;;7.88;;
24650;SDS011;12783;48.824;8.662;2023-02-28T08:40:23;16.65;;;8.43;;
24650;SDS011;12783;48.824;8.662;2023-02-28T08:42:51;15.68;;;8.02;;
24650;SDS011;12783;48.824;8.662;2023-02-28T08:45:17;15.90;;;8.15;;
24650;SDS011;12783;48.824;8.662;2023-02-28T08:47:44;13.30;;;7.53;;
24650;SDS011;12783;48.824;8.662;2023-02-28T08:50:11;14.13;;;8.05;;
24650;SDS011;12783;48.824;8.662;2023-02-28T08:52:44;14.65;;;8.50;;
24650;SDS011;12783;48.824;8.662;2023-02-28T08:55:10;20.08;;;8.63;;
24650;SDS011;12783;48.824;8.662;2023-02-28T08:57:37;15.27;;;7.85;;
24650;SDS011;12783;48.824;8.662;2023-02-28T09:00:04;17.65;;;8.10;;
24650;SDS011;12783;48.824;8.662;2023-02-28T09:02:31;16.55;;;8.30;;
24650;SDS011;12783;48.824;8.662;2023-02-28T09:04:58;16.52;;;8.18;;
24650;SDS011;12783;48.824;8.662;2023-02-28T09:07:25;13.40;;;7.82;;
24650;SDS011;12783;48.824;8.662;2023-02-28T09:09:51;14.23;;;8.05;;
24650;SDS011;12783;48.824;8.662;2023-02-28T09:12:22;16.85;;;8.23;;
24650;SDS011;12783;48.824;8.662;2023-02-28T09:14:49;16.58;;;8.73;;
24650;SDS011;12783;48.824;8.662;2023-02-28T09:17:17;15.15;;;8.57;;
24650;SDS011;12783;48.824;8.662;2023-02-28T09:19:44;19.83;;;8.90;;
24650;SDS011;12783;48.824;8.662;2023-02-28T09:22:11;20.10;;;8.18;;
24650;SDS011;12783;48.824;8.662;2023-02-28T09:24:38;17.17;;;8.45;;
24650;SDS011;12783;48.824;8.662;2023-02-28T09:27:06;15.80;;;8.27;;
24650;SDS011;12783;48.824;8.662;2023-02-28T09:29:33;16.48;;;9.07;;
24650;SDS011;12783;48.824;8.662;2023-02-28T09:32:01;19.80;;;9.05;;
24650;SDS011;12783;48.824;8.662;2023-02-28T09:34:28;16.15;;;8.00;;
24650;SDS011;12783;48.824;8.662;2023-02-28T09:36:57;15.18;;;8.63;;
24650;SDS011;12783;48.824;8.662;2023-02-28T09:39:24;18.05;;;9.65;;
24650;SDS011;12783;48.824;8.662;2023-02-28T09:41:53;16.00;;;8.40;;
24650;SDS011;12783;48.824;8.662;2023-02-28T09:47:09;15.32;;;8.27;;
24650;SDS011;12783;48.824;8.662;2023-02-28T09:49:41;18.73;;;9.18;;
24650;SDS011;12783;48.824;8.662;2023-02-28T09:52:13;16.70;;;8.75;;
24650;SDS011;12783;48.824;8.662;2023-02-28T09:54:44;14.93;;;8.32;;
24650;SDS011;12783;48.824;8.662;2023-02-28T09:57:33;16.08;;;9.13;;
24650;SDS011;12783;48.824;8.662;2023-02-28T10:00:10;15.57;;;8.82;;
24650;SDS011;12783;48.824;8.662;2023-02-28T10:05:34;17.52;;;9.30;;
24650;SDS011;12783;48.824;8.662;2023-02-28T10:08:15;16.15;;;8.68;;
24650;SDS011;12783;48.824;8.662;2023-02-28T10:10:51;16.40;;;8.63;;
24650;SDS011;12783;48.824;8.662;2023-02-28T10:13:24;16.75;;;8.52;;
24650;SDS011;12783;48.824;8.662;2023-02-28T10:16:05;16.65;;;9.00;;
24650;SDS011;12783;48.824;8.662;2023-02-28T10:18:38;16.10;;;8.50;;
24650;SDS011;12783;48.824;8.662;2023-02-28T10:21:24;16.52;;;9.20;;
24650;SDS011;12783;48.824;8.662;2023-02-28T10:24:42;17.50;;;8.50;;
24650;SDS011;12783;48.824;8.662;2023-02-28T10:26:48;16.42;;;9.07;;
24650;SDS011;12783;48.824;8.662;2023-02-28T10:29:15;15.90;;;8.65;;
24650;SDS011;12783;48.824;8.662;2023-02-28T10:31:41;16.60;;;9.38;;
24650;SDS011;12783;48.824;8.662;2023-02-28T10:34:10;15.20;;;8.93;;
24650;SDS011;12783;48.824;8.662;2023-02-28T10:36:38;14.80;;;8.30;;
24650;SDS011;12783;48.824;8.662;2023-02-28T10:42:05;16.38;;;8.98;;
24650;SDS011;12783;48.824;8.662;2023-02-28T10:47:33;17.55;;;8.85;;
24650;SDS011;12783;48.824;8.662;2023-02-28T10:50:02;15.57;;;8.93;;
24650;SDS011;12783;48.824;8.662;2023-02-28T10:52:33;20.05;;;10.13;;
24650;SDS011;12783;48.824;8.662;2023-02-28T10:55:20;21.43;;;9.67;;
24650;SDS011;12783;48.824;8.662;2023-02-28T10:57:51;16.33;;;9.30;;
24650;SDS011;12783;48.824;8.662;2023-02-28T11:00:19;19.60;;;10.50;;
24650;SDS011;12783;48.824;8.662;2023-02-28T11:02:48;18.88;;;10.23;;
24650;SDS011;12783;48.824;8.662;2023-02-28T11:05:25;16.77;;;8.70;;
24650;SDS011;12783;48.824;8.662;2023-02-28T11:07:53;18.73;;;9.80;;
24650;SDS011;12783;48.824;8.662;2023-02-28T11:10:30;17.60;;;9.18;;
24650;SDS011;12783;48.824;8.662;2023-02-28T11:13:00;24.50;;;9.20;;
24650;SDS011;12783;48.824;8.662;2023-02-28T11:15:28;16.15;;;9.38;;
24650;SDS011;12783;48.824;8.662;2023-02-28T11:18:01;19.25;;;9.30;;
24650;SDS011;12783;48.824;8.662;2023-02-28T11:20:33;17.35;;;9.20;;
24650;SDS011;12783;48.824;8.662;2023-02-28T11:23:01;15.15;;;8.93;;
24650;SDS011;12783;48.824;8.662;2023-02-28T11:25:31;16.30;;;8.48;;
24650;SDS011;12783;48.824;8.662;2023-02-28T11:28:00;14.95;;;8.50;;
24650;SDS011;12783;48.824;8.662;2023-02-28T11:30:38;19.00;;;9.70;;
24650;SDS011;12783;48.824;8.662;2023-02-28T11:36:13;15.90;;;8.77;;
24650;SDS011;12783;48.824;8.662;2023-02-28T11:38:48;17.20;;;8.75;;
24650;SDS011;12783;48.824;8.662;2023-02-28T11:55:17;19.25;;;8.85;;
24650;SDS011;12783;48.824;8.662;2023-02-28T12:05:56;19.50;;;9.88;;
24650;SDS011;12783;48.824;8.662;2023-02-28T12:08:26;16.40;;;9.20;;
24650;SDS011;12783;48.824;8.662;2023-02-28T12:11:11;16.38;;;8.73;;
24650;SDS011;12783;48.824;8.662;2023-02-28T12:16:38;16.98;;;8.82;;
24650;SDS011;12783;48.824;8.662;2023-02-28T12:27:40;15.13;;;8.75;;
24650;SDS011;12783;48.824;8.662;2023-02-28T12:32:49;18.00;;;9.80;;
24650;SDS011;12783;48.824;8.662;2023-02-28T12:35:25;14.75;;;9.13;;
24650;SDS011;12783;48.824;8.662;2023-02-28T12:38:05;18.17;;;9.27;;
24650;SDS011;12783;48.824;8.662;2023-02-28T12:41:02;14.70;;;9.20;;
24650;SDS011;12783;48.824;8.662;2023-02-28T12:43:34;15.90;;;9.02;;
24650;SDS011;12783;48.824;8.662;2023-02-28T12:46:20;16.73;;;9.02;;
24650;SDS011;12783;48.824;8.662;2023-02-28T12:49:18;17.67;;;9.20;;
24650;SDS011;12783;48.824;8.662;2023-02-28T12:51:52;14.30;;;9.07;;
24650;SDS011;12783;48.824;8.662;2023-02-28T13:00:00;15.70;;;9.68;;
24650;SDS011;12783;48.824;8.662;2023-02-28T13:10:48;18.50;;;9.40;;
24650;SDS011;12783;48.824;8.662;2023-02-28T13:13:21;18.10;;;9.30;;
24650;SDS011;12783;48.824;8.662;2023-02-28T13:16:08;17.98;;;9.27;;
24650;SDS011;12783;48.824;8.662;2023-02-28T13:18:36;19.40;;;9.85;;
24650;SDS011;12783;48.824;8.662;2023-02-28T13:21:07;18.73;;;9.50;;
24650;SDS011;12783;48.824;8.662;2023-02-28T13:26:13;19.17;;;9.02;;
24650;SDS011;12783;48.824;8.662;2023-02-28T13:31:21;15.60;;;8.73;;
24650;SDS011;12783;48.824;8.662;2023-02-28T13:38:49;16.17;;;8.88;;
24650;SDS011;12783;48.824;8.662;2023-02-28T13:41:40;15.55;;;9.07;;
24650;SDS011;12783;48.824;8.662;2023-02-28T13:44:11;17.17;;;9.32;;
24650;SDS011;12783;48.824;8.662;2023-02-28T13:49:19;20.85;;;8.73;;
24650;SDS011;12783;48.824;8.662;2023-02-28T13:51:52;17.80;;;9.10;;
24650;SDS011;12783;48.824;8.662;2023-02-28T13:57:11;23.42;;;9.48;;
24650;SDS011;12783;48.824;8.662;2023-02-28T13:59:54;14.73;;;8.57;;
24650;SDS011;12783;48.824;8.662;2023-02-28T14:03:10;21.15;;;9.20;;
24650;SDS011;12783;48.824;8.662;2023-02-28T14:08:54;18.13;;;9.32;;
24650;SDS011;12783;48.824;8.662;2023-02-28T14:11:33;17.75;;;9.05;;
24650;SDS011;12783;48.824;8.662;2023-02-28T14:14:04;14.80;;;8.73;;
24650;SDS011;12783;48.824;8.662;2023-02-28T14:16:36;17.98;;;8.73;;
24650;SDS011;12783;48.824;8.662;2023-02-28T14:19:19;16.08;;;9.05;;
24650;SDS011;12783;48.824;8.662;2023-02-28T14:27:21;15.20;;;9.07;;
24650;SDS011;12783;48.824;8.662;2023-02-28T14:35:46;16.02;;;8.57;;
24650;SDS011;12783;48.824;8.662;2023-02-28T14:38:23;14.95;;;8.60;;
24650;SDS011;12783;48.824;8.662;2023-02-28T14:40:52;14.30;;;8.60;;
24650;SDS011;12783;48.824;8.662;2023-02-28T14:43:23;14.13;;;8.07;;
24650;SDS011;12783;48.824;8.662;2023-02-28T14:45:52;13.15;;;8.50;;
24650;SDS011;12783;48.824;8.662;2023-02-28T14:48:24;18.00;;;8.27;;
24650;SDS011;12783;48.824;8.662;2023-02-28T14:50:54;16.70;;;9.15;;
24650;SDS011;12783;48.824;8.662;2023-02-28T14:53:23;15.65;;;8.48;;
24650;SDS011;12783;48.824;8.662;2023-02-28T14:55:52;19.67;;;9.55;;
24650;SDS011;12783;48.824;8.662;2023-02-28T14:58:21;17.42;;;9.20;;
24650;SDS011;12783;48.824;8.662;2023-02-28T15:00:49;15.18;;;9.02;;
24650;SDS011;12783;48.824;8.662;2023-02-28T15:06:02;15.90;;;8.98;;
24650;SDS011;12783;48.824;8.662;2023-02-28T15:08:31;18.67;;;9.18;;
24650;SDS011;12783;48.824;8.662;2023-02-28T15:11:04;15.63;;;8.90;;
24650;SDS011;12783;48.824;8.662;2023-02-28T15:13:40;15.48;;;9.13;;
24650;SDS011;12783;48.824;8.662;2023-02-28T15:16:11;18.00;;;9.23;;
24650;SDS011;12783;48.824;8.662;2023-02-28T15:19:00;18.52;;;10.02;;
24650;SDS011;12783;48.824;8.662;2023-02-28T15:21:30;16.23;;;9.18;;
24650;SDS011;12783;48.824;8.662;2023-02-28T15:24:14;16.23;;;9.75;;
24650;SDS011;12783;48.824;8.662;2023-02-28T15:26:51;17.95;;;10.23;;
24650;SDS011;12783;48.824;8.662;2023-02-28T15:29:22;19.25;;;10.07;;
24650;SDS011;12783;48.824;8.662;2023-02-28T15:32:06;19.75;;;9.55;;
24650;SDS011;12783;48.824;8.662;2023-02-28T15:34:37;16.60;;;9.98;;
24650;SDS011;12783;48.824;8.662;2023-02-28T15:37:30;21.38;;;10.35;;
24650;SDS011;12783;48.824;8.662;2023-02-28T15:40:11;17.67;;;9.25;;
24650;SDS011;12783;48.824;8.662;2023-02-28T15:45:32;17.95;;;10.32;;
24650;SDS011;12783;48.824;8.662;2023-02-28T15:48:04;16.85;;;9.68;;
24650;SDS011;12783;48.824;8.662;2023-02-28T15:50:39;17.58;;;9.30;;
24650;SDS011;12783;48.824;8.662;2023-02-28T15:53:12;15.93;;;9.68;;
24650;SDS011;12783;48.824;8.662;2023-02-28T15:55:40;17.08;;;10.30;;
24650;SDS011;12783;48.824;8.662;2023-02-28T15:58:08;18.10;;;10.25;;
24650;SDS011;12783;48.824;8.662;2023-02-28T16:00:39;16.92;;;9.40;;
24650;SDS011;12783;48.824;8.662;2023-02-28T16:03:25;16.92;;;10.00;;
24650;SDS011;12783;48.824;8.662;2023-02-28T16:06:53;18.35;;;10.75;;
24650;SDS011;12783;48.824;8.662;2023-02-28T16:08:57;17.75;;;9.65;;
24650;SDS011;12783;48.824;8.662;2023-02-28T16:11:24;19.42;;;10.52;;
24650;SDS011;12783;48.824;8.662;2023-02-28T16:13:51;19.30;;;10.88;;
24650;SDS011;12783;48.824;8.662;2023-02-28T16:16:20;18.45;;;10.38;;
24650;SDS011;12783;48.824;8.662;2023-02-28T16:18:48;17.17;;;10.05;;
24650;SDS011;12783;48.824;8.662;2023-02-28T16:21:15;16.10;;;9.40;;
24650;SDS011;12783;48.824;8.662;2023-02-28T16:23:42;16.95;;;10.10;;
24650;SDS011;12783;48.824;8.662;2023-02-28T16:26:12;19.42;;;9.55;;
24650;SDS011;12783;48.824;8.662;2023-02-28T16:28:45;19.67;;;9.80;;
24650;SDS011;12783;48.824;8.662;2023-02-28T16:31:11;18.23;;;10.18;;
24650;SDS011;12783;48.824;8.662;2023-02-28T16:33:43;23.25;;;10.60;;
24650;SDS011;12783;48.824;8.662;2023-02-28T16:36:15;17.98;;;9.68;;
24650;SDS011;12783;48.824;8.662;2023-02-28T16:38:43;16.58;;;9.85;;
24650;SDS011;12783;48.824;8.662;2023-02-28T16:41:12;15.82;;;9.52;;
24650;SDS011;12783;48.824;8.662;2023-02-28T16:43:43;19.40;;;11.02;;
24650;SDS011;12783;48.824;8.662;2023-02-28T16:46:14;22.05;;;10.40;;
24650;SDS011;12783;48.824;8.662;2023-02-28T16:48:46;22.38;;;11.15;;
24650;SDS011;12783;48.824;8.662;2023-02-28T16:51:17;22.65;;;11.35;;
24650;SDS011;12783;48.824;8.662;2023-02-28T16:53:45;20.55;;;10.73;;
24650;SDS011;12783;48.824;8.662;2023-02-28T16:56:16;20.60;;;10.80;;
24650;SDS011;12783;48.824;8.662;2023-02-28T16:58:44;22.13;;;10.45;;
24650;SDS011;12783;48.824;8.662;2023-02-28T17:01:11;20.40;;;10.23;;
24650;SDS011;12783;48.824;8.662;2023-02-28T17:03:38;17.05;;;10.35;;
24650;SDS011;12783;48.824;8.662;2023-02-28T17:06:11;15.90;;;9.82;;